sensor_id;sensor_type;location;lat;lon;timestamp;temperature;humidity
55785;DHT22;41709;52.536;5.688;2022-08-23T00:01:20;19.50;71.80
55785;DHT22;41709;52.536;5.688;2022-08-23T00:03:46;19.50;72.60
55785;DHT22;41709;52.536;5.688;2022-08-23T00:06:12;19.40;71.80
55785;DHT22;41709;52.536;5.688;2022-08-23T00:08:38;19.40;72.20
55785;DHT22;41709;52.536;5.688;2022-08-23T00:11:04;19.30;72.10
55785;DHT22;41709;52.536;5.688;2022-08-23T00:13:30;19.30;72.30
55785;DHT22;41709;52.536;5.688;2022-08-23T00:15:56;19.40;72.40
55785;DHT22;41709;52.536;5.688;2022-08-23T00:18:22;19.30;72.50
55785;DHT22;41709;52.536;5.688;2022-08-23T00:20:49;19.30;72.60
55785;DHT22;41709;52.536;5.688;2022-08-23T00:23:14;19.30;72.70
55785;DHT22;41709;52.536;5.688;2022-08-23T00:25:40;19.20;72.80
55785;DHT22;41709;52.536;5.688;2022-08-23T00:28:05;19.20;72.90
55785;DHT22;41709;52.536;5.688;2022-08-23T00:30:32;19.20;73.20
55785;DHT22;41709;52.536;5.688;2022-08-23T00:32:58;19.00;73.40
55785;DHT22;41709;52.536;5.688;2022-08-23T00:35:23;19.10;73.60
55785;DHT22;41709;52.536;5.688;2022-08-23T00:37:49;19.00;73.70
55785;DHT22;41709;52.536;5.688;2022-08-23T00:40:17;19.00;74.00
55785;DHT22;41709;52.536;5.688;2022-08-23T00:43:04;18.90;74.70
55785;DHT22;41709;52.536;5.688;2022-08-23T00:46:43;18.90;74.10
55785;DHT22;41709;52.536;5.688;2022-08-23T00:49:10;18.90;74.30
55785;DHT22;41709;52.536;5.688;2022-08-23T00:54:27;18.80;74.60
55785;DHT22;41709;52.536;5.688;2022-08-23T00:56:56;18.90;74.60
55785;DHT22;41709;52.536;5.688;2022-08-23T00:59:22;18.80;74.60
55785;DHT22;41709;52.536;5.688;2022-08-23T01:01:49;18.80;74.90
55785;DHT22;41709;52.536;5.688;2022-08-23T01:04:15;18.80;75.00
55785;DHT22;41709;52.536;5.688;2022-08-23T01:06:58;18.80;75.10
55785;DHT22;41709;52.536;5.688;2022-08-23T01:09:25;18.70;75.10
55785;DHT22;41709;52.536;5.688;2022-08-23T01:12:19;18.70;75.30
55785;DHT22;41709;52.536;5.688;2022-08-23T01:14:50;18.60;75.40
55785;DHT22;41709;52.536;5.688;2022-08-23T01:17:23;18.70;75.60
55785;DHT22;41709;52.536;5.688;2022-08-23T01:19:55;18.70;75.70
55785;DHT22;41709;52.536;5.688;2022-08-23T01:23:01;18.60;75.50
55785;DHT22;41709;52.536;5.688;2022-08-23T01:25:31;18.60;75.50
55785;DHT22;41709;52.536;5.688;2022-08-23T01:27:58;18.70;75.60
55785;DHT22;41709;52.536;5.688;2022-08-23T01:30:28;18.60;75.40
55785;DHT22;41709;52.536;5.688;2022-08-23T01:32:59;18.60;75.50
55785;DHT22;41709;52.536;5.688;2022-08-23T01:35:46;18.70;75.30
55785;DHT22;41709;52.536;5.688;2022-08-23T01:38:13;18.70;75.30
55785;DHT22;41709;52.536;5.688;2022-08-23T01:40:40;18.70;75.80
55785;DHT22;41709;52.536;5.688;2022-08-23T01:43:07;18.70;75.20
55785;DHT22;41709;52.536;5.688;2022-08-23T01:45:33;18.70;75.30
55785;DHT22;41709;52.536;5.688;2022-08-23T01:47:59;18.80;75.20
55785;DHT22;41709;52.536;5.688;2022-08-23T01:50:26;18.70;75.30
55785;DHT22;41709;52.536;5.688;2022-08-23T01:52:52;18.70;75.50
55785;DHT22;41709;52.536;5.688;2022-08-23T01:55:18;18.70;75.60
55785;DHT22;41709;52.536;5.688;2022-08-23T01:57:44;18.70;75.70
55785;DHT22;41709;52.536;5.688;2022-08-23T02:00:11;18.70;75.90
55785;DHT22;41709;52.536;5.688;2022-08-23T02:02:37;18.70;75.70
55785;DHT22;41709;52.536;5.688;2022-08-23T02:05:04;18.70;75.70
55785;DHT22;41709;52.536;5.688;2022-08-23T02:07:30;18.80;75.70
55785;DHT22;41709;52.536;5.688;2022-08-23T02:09:56;18.80;75.80
55785;DHT22;41709;52.536;5.688;2022-08-23T02:12:22;18.80;75.80
55785;DHT22;41709;52.536;5.688;2022-08-23T02:14:48;18.80;75.70
55785;DHT22;41709;52.536;5.688;2022-08-23T02:17:13;18.80;75.80
55785;DHT22;41709;52.536;5.688;2022-08-23T02:19:41;18.80;75.90
55785;DHT22;41709;52.536;5.688;2022-08-23T02:22:08;18.80;75.80
55785;DHT22;41709;52.536;5.688;2022-08-23T02:24:39;18.90;75.80
55785;DHT22;41709;52.536;5.688;2022-08-23T02:27:05;18.80;75.80
55785;DHT22;41709;52.536;5.688;2022-08-23T02:29:32;18.80;75.70
55785;DHT22;41709;52.536;5.688;2022-08-23T02:31:59;18.80;75.70
55785;DHT22;41709;52.536;5.688;2022-08-23T02:34:27;18.80;75.70
55785;DHT22;41709;52.536;5.688;2022-08-23T02:36:53;18.80;75.60
55785;DHT22;41709;52.536;5.688;2022-08-23T02:39:19;18.80;75.60
55785;DHT22;41709;52.536;5.688;2022-08-23T02:41:44;18.80;75.50
55785;DHT22;41709;52.536;5.688;2022-08-23T02:44:10;18.80;75.40
55785;DHT22;41709;52.536;5.688;2022-08-23T02:46:37;18.80;75.30
55785;DHT22;41709;52.536;5.688;2022-08-23T02:49:03;18.80;75.30
55785;DHT22;41709;52.536;5.688;2022-08-23T02:51:29;18.80;75.40
55785;DHT22;41709;52.536;5.688;2022-08-23T02:53:55;18.80;75.40
55785;DHT22;41709;52.536;5.688;2022-08-23T02:56:20;18.80;75.30
55785;DHT22;41709;52.536;5.688;2022-08-23T02:58:46;18.80;75.30
55785;DHT22;41709;52.536;5.688;2022-08-23T03:01:20;18.80;75.40
55785;DHT22;41709;52.536;5.688;2022-08-23T03:03:46;18.80;75.50
55785;DHT22;41709;52.536;5.688;2022-08-23T03:06:13;18.80;75.40
55785;DHT22;41709;52.536;5.688;2022-08-23T03:08:39;18.70;75.40
55785;DHT22;41709;52.536;5.688;2022-08-23T03:11:11;18.70;75.50
55785;DHT22;41709;52.536;5.688;2022-08-23T03:13:37;18.70;75.50
55785;DHT22;41709;52.536;5.688;2022-08-23T03:16:03;18.70;75.50
55785;DHT22;41709;52.536;5.688;2022-08-23T03:18:29;18.70;75.40
55785;DHT22;41709;52.536;5.688;2022-08-23T03:20:54;18.70;75.50
55785;DHT22;41709;52.536;5.688;2022-08-23T03:23:20;18.70;75.60
55785;DHT22;41709;52.536;5.688;2022-08-23T03:25:45;18.70;75.70
55785;DHT22;41709;52.536;5.688;2022-08-23T03:28:11;18.70;75.80
55785;DHT22;41709;52.536;5.688;2022-08-23T03:30:37;18.60;76.00
55785;DHT22;41709;52.536;5.688;2022-08-23T03:33:02;18.60;76.00
55785;DHT22;41709;52.536;5.688;2022-08-23T03:35:28;18.60;75.90
55785;DHT22;41709;52.536;5.688;2022-08-23T03:37:54;18.60;75.90
55785;DHT22;41709;52.536;5.688;2022-08-23T03:40:20;18.60;76.00
55785;DHT22;41709;52.536;5.688;2022-08-23T03:42:47;18.60;76.00
55785;DHT22;41709;52.536;5.688;2022-08-23T03:45:13;18.50;75.90
55785;DHT22;41709;52.536;5.688;2022-08-23T03:47:38;18.50;76.00
55785;DHT22;41709;52.536;5.688;2022-08-23T03:50:04;18.50;76.10
55785;DHT22;41709;52.536;5.688;2022-08-23T03:52:30;18.50;76.80
55785;DHT22;41709;52.536;5.688;2022-08-23T03:54:55;18.50;76.10
55785;DHT22;41709;52.536;5.688;2022-08-23T03:57:21;18.50;76.10
55785;DHT22;41709;52.536;5.688;2022-08-23T03:59:47;18.50;76.20
55785;DHT22;41709;52.536;5.688;2022-08-23T04:02:13;18.50;76.20
55785;DHT22;41709;52.536;5.688;2022-08-23T04:04:40;18.50;76.60
55785;DHT22;41709;52.536;5.688;2022-08-23T04:07:05;18.50;76.60
55785;DHT22;41709;52.536;5.688;2022-08-23T04:09:31;18.50;76.70
55785;DHT22;41709;52.536;5.688;2022-08-23T04:11:56;18.50;76.80
55785;DHT22;41709;52.536;5.688;2022-08-23T04:14:22;18.50;76.60
55785;DHT22;41709;52.536;5.688;2022-08-23T04:16:49;18.50;76.60
55785;DHT22;41709;52.536;5.688;2022-08-23T04:19:15;18.50;76.40
55785;DHT22;41709;52.536;5.688;2022-08-23T04:21:49;18.50;76.40
55785;DHT22;41709;52.536;5.688;2022-08-23T04:24:16;18.50;76.20
55785;DHT22;41709;52.536;5.688;2022-08-23T04:26:43;18.50;76.30
55785;DHT22;41709;52.536;5.688;2022-08-23T04:29:09;18.60;76.40
55785;DHT22;41709;52.536;5.688;2022-08-23T04:31:35;18.50;76.30
55785;DHT22;41709;52.536;5.688;2022-08-23T04:34:02;18.60;76.20
55785;DHT22;41709;52.536;5.688;2022-08-23T04:36:30;18.60;76.20
55785;DHT22;41709;52.536;5.688;2022-08-23T04:38:58;18.50;76.00
55785;DHT22;41709;52.536;5.688;2022-08-23T04:41:24;18.60;76.10
55785;DHT22;41709;52.536;5.688;2022-08-23T04:44:08;18.60;76.10
55785;DHT22;41709;52.536;5.688;2022-08-23T04:46:34;18.60;76.60
55785;DHT22;41709;52.536;5.688;2022-08-23T04:49:00;18.70;75.90
55785;DHT22;41709;52.536;5.688;2022-08-23T04:51:26;18.60;75.80
55785;DHT22;41709;52.536;5.688;2022-08-23T04:53:52;18.60;75.80
55785;DHT22;41709;52.536;5.688;2022-08-23T04:56:17;18.60;75.80
55785;DHT22;41709;52.536;5.688;2022-08-23T04:58:43;18.60;76.00
55785;DHT22;41709;52.536;5.688;2022-08-23T05:01:09;18.60;76.00
55785;DHT22;41709;52.536;5.688;2022-08-23T05:03:35;18.60;76.00
55785;DHT22;41709;52.536;5.688;2022-08-23T05:06:01;18.60;76.80
55785;DHT22;41709;52.536;5.688;2022-08-23T05:08:29;18.60;76.10
55785;DHT22;41709;52.536;5.688;2022-08-23T05:10:59;18.50;76.10
55785;DHT22;41709;52.536;5.688;2022-08-23T05:13:24;18.60;76.10
55785;DHT22;41709;52.536;5.688;2022-08-23T05:15:50;18.50;76.20
55785;DHT22;41709;52.536;5.688;2022-08-23T05:18:17;18.50;76.20
55785;DHT22;41709;52.536;5.688;2022-08-23T05:20:43;18.60;76.20
55785;DHT22;41709;52.536;5.688;2022-08-23T05:23:08;18.60;77.00
55785;DHT22;41709;52.536;5.688;2022-08-23T05:25:34;18.60;76.20
55785;DHT22;41709;52.536;5.688;2022-08-23T05:28:20;18.60;76.20
55785;DHT22;41709;52.536;5.688;2022-08-23T05:30:57;18.60;76.20
55785;DHT22;41709;52.536;5.688;2022-08-23T05:33:24;18.60;76.30
55785;DHT22;41709;52.536;5.688;2022-08-23T05:35:50;18.60;76.30
55785;DHT22;41709;52.536;5.688;2022-08-23T05:38:16;18.60;76.40
55785;DHT22;41709;52.536;5.688;2022-08-23T05:40:41;18.60;76.40
55785;DHT22;41709;52.536;5.688;2022-08-23T05:43:07;18.60;76.60
55785;DHT22;41709;52.536;5.688;2022-08-23T05:45:32;18.70;76.70
55785;DHT22;41709;52.536;5.688;2022-08-23T05:47:58;18.70;76.60
55785;DHT22;41709;52.536;5.688;2022-08-23T05:50:23;18.80;76.70
55785;DHT22;41709;52.536;5.688;2022-08-23T05:52:49;18.80;76.50
55785;DHT22;41709;52.536;5.688;2022-08-23T05:55:15;18.90;76.30
55785;DHT22;41709;52.536;5.688;2022-08-23T05:57:41;18.90;76.20
55785;DHT22;41709;52.536;5.688;2022-08-23T06:00:09;18.90;77.00
55785;DHT22;41709;52.536;5.688;2022-08-23T06:02:38;19.00;76.50
55785;DHT22;41709;52.536;5.688;2022-08-23T06:05:04;19.10;76.50
55785;DHT22;41709;52.536;5.688;2022-08-23T06:07:29;19.10;76.40
55785;DHT22;41709;52.536;5.688;2022-08-23T06:09:55;19.20;76.40
55785;DHT22;41709;52.536;5.688;2022-08-23T06:12:21;19.20;76.20
55785;DHT22;41709;52.536;5.688;2022-08-23T06:14:47;19.30;76.10
55785;DHT22;41709;52.536;5.688;2022-08-23T06:17:12;19.30;75.70
55785;DHT22;41709;52.536;5.688;2022-08-23T06:19:38;19.40;75.60
55785;DHT22;41709;52.536;5.688;2022-08-23T06:22:03;19.50;75.40
55785;DHT22;41709;52.536;5.688;2022-08-23T06:24:29;19.60;75.40
55785;DHT22;41709;52.536;5.688;2022-08-23T06:26:55;19.70;75.20
55785;DHT22;41709;52.536;5.688;2022-08-23T06:29:20;19.70;75.40
55785;DHT22;41709;52.536;5.688;2022-08-23T06:31:49;19.80;74.20
55785;DHT22;41709;52.536;5.688;2022-08-23T06:34:31;19.80;74.00
55785;DHT22;41709;52.536;5.688;2022-08-23T06:36:59;19.90;73.90
55785;DHT22;41709;52.536;5.688;2022-08-23T06:39:27;20.00;73.50
55785;DHT22;41709;52.536;5.688;2022-08-23T06:42:00;20.10;72.90
55785;DHT22;41709;52.536;5.688;2022-08-23T06:44:27;20.10;72.80
55785;DHT22;41709;52.536;5.688;2022-08-23T06:46:54;20.20;73.10
55785;DHT22;41709;52.536;5.688;2022-08-23T06:49:23;20.20;73.10
55785;DHT22;41709;52.536;5.688;2022-08-23T06:51:50;20.40;72.70
55785;DHT22;41709;52.536;5.688;2022-08-23T06:54:23;20.40;72.40
55785;DHT22;41709;52.536;5.688;2022-08-23T06:56:49;20.40;72.00
55785;DHT22;41709;52.536;5.688;2022-08-23T06:59:16;20.40;71.90
55785;DHT22;41709;52.536;5.688;2022-08-23T07:01:48;20.40;71.70
55785;DHT22;41709;52.536;5.688;2022-08-23T07:04:21;20.40;71.70
55785;DHT22;41709;52.536;5.688;2022-08-23T07:06:47;20.50;71.60
55785;DHT22;41709;52.536;5.688;2022-08-23T07:09:13;20.40;71.80
55785;DHT22;41709;52.536;5.688;2022-08-23T07:11:39;20.50;71.80
55785;DHT22;41709;52.536;5.688;2022-08-23T07:14:09;20.50;71.80
55785;DHT22;41709;52.536;5.688;2022-08-23T07:16:40;20.50;72.00
55785;DHT22;41709;52.536;5.688;2022-08-23T07:19:07;20.40;72.40
55785;DHT22;41709;52.536;5.688;2022-08-23T07:21:33;20.60;71.90
55785;DHT22;41709;52.536;5.688;2022-08-23T07:23:59;20.60;72.20
55785;DHT22;41709;52.536;5.688;2022-08-23T07:26:25;20.80;72.20
55785;DHT22;41709;52.536;5.688;2022-08-23T07:28:51;20.70;72.40
55785;DHT22;41709;52.536;5.688;2022-08-23T07:31:24;20.80;72.30
55785;DHT22;41709;52.536;5.688;2022-08-23T07:33:56;20.80;72.10
55785;DHT22;41709;52.536;5.688;2022-08-23T07:36:24;20.90;72.30
55785;DHT22;41709;52.536;5.688;2022-08-23T07:38:55;21.10;71.80
55785;DHT22;41709;52.536;5.688;2022-08-23T07:41:23;21.10;71.90
55785;DHT22;41709;52.536;5.688;2022-08-23T07:43:49;21.20;71.20
55785;DHT22;41709;52.536;5.688;2022-08-23T07:46:15;21.30;71.60
55785;DHT22;41709;52.536;5.688;2022-08-23T07:48:41;21.50;70.70
55785;DHT22;41709;52.536;5.688;2022-08-23T07:51:10;21.50;70.70
55785;DHT22;41709;52.536;5.688;2022-08-23T07:53:37;21.60;70.30
55785;DHT22;41709;52.536;5.688;2022-08-23T07:56:13;21.80;69.60
55785;DHT22;41709;52.536;5.688;2022-08-23T07:58:40;21.80;69.20
55785;DHT22;41709;52.536;5.688;2022-08-23T08:01:16;21.90;70.00
55785;DHT22;41709;52.536;5.688;2022-08-23T08:03:43;22.00;69.60
55785;DHT22;41709;52.536;5.688;2022-08-23T08:06:17;22.10;69.30
55785;DHT22;41709;52.536;5.688;2022-08-23T08:08:43;22.30;68.90
55785;DHT22;41709;52.536;5.688;2022-08-23T08:11:11;22.30;67.80
55785;DHT22;41709;52.536;5.688;2022-08-23T08:13:39;22.40;66.30
55785;DHT22;41709;52.536;5.688;2022-08-23T08:16:06;22.60;66.50
55785;DHT22;41709;52.536;5.688;2022-08-23T08:18:33;22.60;66.40
55785;DHT22;41709;52.536;5.688;2022-08-23T08:20:59;22.60;65.00
55785;DHT22;41709;52.536;5.688;2022-08-23T08:23:25;22.70;65.70
55785;DHT22;41709;52.536;5.688;2022-08-23T08:26:01;22.80;64.40
55785;DHT22;41709;52.536;5.688;2022-08-23T08:28:27;22.90;64.10
55785;DHT22;41709;52.536;5.688;2022-08-23T08:30:53;22.90;65.10
55785;DHT22;41709;52.536;5.688;2022-08-23T08:33:18;23.00;64.80
55785;DHT22;41709;52.536;5.688;2022-08-23T08:35:47;23.00;65.20
55785;DHT22;41709;52.536;5.688;2022-08-23T08:38:13;23.10;65.10
55785;DHT22;41709;52.536;5.688;2022-08-23T08:40:39;23.20;65.00
55785;DHT22;41709;52.536;5.688;2022-08-23T08:43:31;23.20;64.20
55785;DHT22;41709;52.536;5.688;2022-08-23T08:46:08;23.20;62.90
55785;DHT22;41709;52.536;5.688;2022-08-23T08:48:44;23.30;62.80
55785;DHT22;41709;52.536;5.688;2022-08-23T08:51:43;23.30;64.00
55785;DHT22;41709;52.536;5.688;2022-08-23T08:54:14;23.30;63.70
55785;DHT22;41709;52.536;5.688;2022-08-23T08:56:46;23.40;63.50
55785;DHT22;41709;52.536;5.688;2022-08-23T08:59:22;23.40;64.10
55785;DHT22;41709;52.536;5.688;2022-08-23T09:01:49;23.40;65.10
55785;DHT22;41709;52.536;5.688;2022-08-23T09:04:15;23.50;65.10
55785;DHT22;41709;52.536;5.688;2022-08-23T09:09:26;23.50;63.80
55785;DHT22;41709;52.536;5.688;2022-08-23T09:17:57;23.70;62.50
55785;DHT22;41709;52.536;5.688;2022-08-23T09:20:26;23.70;62.90
55785;DHT22;41709;52.536;5.688;2022-08-23T09:25:32;23.70;61.20
55785;DHT22;41709;52.536;5.688;2022-08-23T09:27:57;23.80;62.50
55785;DHT22;41709;52.536;5.688;2022-08-23T09:30:44;23.90;62.40
55785;DHT22;41709;52.536;5.688;2022-08-23T09:33:19;23.90;61.90
55785;DHT22;41709;52.536;5.688;2022-08-23T09:38:26;23.90;60.70
55785;DHT22;41709;52.536;5.688;2022-08-23T09:40:54;24.00;61.30
55785;DHT22;41709;52.536;5.688;2022-08-23T09:43:23;24.00;60.80
55785;DHT22;41709;52.536;5.688;2022-08-23T09:48:41;24.10;62.50
55785;DHT22;41709;52.536;5.688;2022-08-23T09:51:21;24.20;62.40
55785;DHT22;41709;52.536;5.688;2022-08-23T09:53:50;24.30;61.00
55785;DHT22;41709;52.536;5.688;2022-08-23T09:56:23;24.30;60.00
55785;DHT22;41709;52.536;5.688;2022-08-23T09:58:51;24.40;60.50
55785;DHT22;41709;52.536;5.688;2022-08-23T10:01:30;24.50;59.50
55785;DHT22;41709;52.536;5.688;2022-08-23T10:04:20;24.60;60.00
55785;DHT22;41709;52.536;5.688;2022-08-23T10:06:50;24.70;59.20
55785;DHT22;41709;52.536;5.688;2022-08-23T10:09:25;24.80;59.60
55785;DHT22;41709;52.536;5.688;2022-08-23T10:11:52;24.90;59.10
55785;DHT22;41709;52.536;5.688;2022-08-23T10:14:21;24.90;59.50
55785;DHT22;41709;52.536;5.688;2022-08-23T10:19:57;25.10;58.60
55785;DHT22;41709;52.536;5.688;2022-08-23T10:22:28;25.20;58.90
55785;DHT22;41709;52.536;5.688;2022-08-23T10:38:41;25.60;57.70
55785;DHT22;41709;52.536;5.688;2022-08-23T10:46:26;25.80;56.80
55785;DHT22;41709;52.536;5.688;2022-08-23T10:48:56;25.80;55.00
55785;DHT22;41709;52.536;5.688;2022-08-23T10:51:26;25.90;55.10
55785;DHT22;41709;52.536;5.688;2022-08-23T10:54:09;25.90;56.50
55785;DHT22;41709;52.536;5.688;2022-08-23T10:56:38;25.90;54.80
55785;DHT22;41709;52.536;5.688;2022-08-23T10:59:09;26.00;54.70
55785;DHT22;41709;52.536;5.688;2022-08-23T11:04:27;25.90;54.30
55785;DHT22;41709;52.536;5.688;2022-08-23T11:06:56;25.80;55.10
55785;DHT22;41709;52.536;5.688;2022-08-23T11:11:49;25.90;55.10
55785;DHT22;41709;52.536;5.688;2022-08-23T11:17:02;26.00;54.60
55785;DHT22;41709;52.536;5.688;2022-08-23T11:19:51;26.00;55.90
55785;DHT22;41709;52.536;5.688;2022-08-23T11:22:20;26.00;53.60
55785;DHT22;41709;52.536;5.688;2022-08-23T11:25:01;26.10;55.00
55785;DHT22;41709;52.536;5.688;2022-08-23T11:27:32;26.10;54.10
55785;DHT22;41709;52.536;5.688;2022-08-23T11:32:59;26.10;54.00
55785;DHT22;41709;52.536;5.688;2022-08-23T11:37:58;26.20;51.80
55785;DHT22;41709;52.536;5.688;2022-08-23T11:45:49;26.30;52.40
55785;DHT22;41709;52.536;5.688;2022-08-23T11:48:35;26.40;53.90
55785;DHT22;41709;52.536;5.688;2022-08-23T12:01:44;26.50;54.50
55785;DHT22;41709;52.536;5.688;2022-08-23T12:06:59;26.40;54.50
55785;DHT22;41709;52.536;5.688;2022-08-23T12:14:48;26.50;54.70
55785;DHT22;41709;52.536;5.688;2022-08-23T12:22:23;26.50;54.20
55785;DHT22;41709;52.536;5.688;2022-08-23T12:24:56;26.50;53.00
55785;DHT22;41709;52.536;5.688;2022-08-23T12:27:42;26.50;53.00
55785;DHT22;41709;52.536;5.688;2022-08-23T12:35:44;26.50;54.00
55785;DHT22;41709;52.536;5.688;2022-08-23T12:40:50;26.50;53.10
55785;DHT22;41709;52.536;5.688;2022-08-23T12:43:25;26.50;52.50
55785;DHT22;41709;52.536;5.688;2022-08-23T12:45:56;26.50;54.50
55785;DHT22;41709;52.536;5.688;2022-08-23T12:48:25;26.50;52.70
55785;DHT22;41709;52.536;5.688;2022-08-23T12:51:11;26.40;52.00
55785;DHT22;41709;52.536;5.688;2022-08-23T12:53:42;26.40;52.80
55785;DHT22;41709;52.536;5.688;2022-08-23T12:56:15;26.40;52.60
55785;DHT22;41709;52.536;5.688;2022-08-23T12:58:45;26.50;52.30
55785;DHT22;41709;52.536;5.688;2022-08-23T13:01:30;26.50;51.70
55785;DHT22;41709;52.536;5.688;2022-08-23T13:04:05;26.50;51.50
55785;DHT22;41709;52.536;5.688;2022-08-23T13:06:50;26.50;52.00
55785;DHT22;41709;52.536;5.688;2022-08-23T13:09:24;26.50;51.50
55785;DHT22;41709;52.536;5.688;2022-08-23T13:11:52;26.60;51.70
55785;DHT22;41709;52.536;5.688;2022-08-23T13:14:41;26.60;51.50
55785;DHT22;41709;52.536;5.688;2022-08-23T13:17:18;26.70;51.40
55785;DHT22;41709;52.536;5.688;2022-08-23T13:19:46;26.70;51.20
55785;DHT22;41709;52.536;5.688;2022-08-23T13:25:00;26.90;51.00
55785;DHT22;41709;52.536;5.688;2022-08-23T13:27:29;27.00;52.00
55785;DHT22;41709;52.536;5.688;2022-08-23T13:29:58;27.10;51.30
55785;DHT22;41709;52.536;5.688;2022-08-23T13:32:40;27.10;49.90
55785;DHT22;41709;52.536;5.688;2022-08-23T13:45:52;27.60;50.40
55785;DHT22;41709;52.536;5.688;2022-08-23T13:48:26;27.70;51.30
55785;DHT22;41709;52.536;5.688;2022-08-23T13:50:53;27.80;49.20
55785;DHT22;41709;52.536;5.688;2022-08-23T13:53:19;28.10;49.20
55785;DHT22;41709;52.536;5.688;2022-08-23T13:55:52;28.20;50.20
55785;DHT22;41709;52.536;5.688;2022-08-23T13:58:29;28.30;49.90
55785;DHT22;41709;52.536;5.688;2022-08-23T14:00:56;28.40;50.00
55785;DHT22;41709;52.536;5.688;2022-08-23T14:03:23;28.50;48.90
55785;DHT22;41709;52.536;5.688;2022-08-23T14:05:49;28.70;49.70
55785;DHT22;41709;52.536;5.688;2022-08-23T14:08:14;28.80;49.50
55785;DHT22;41709;52.536;5.688;2022-08-23T14:10:40;28.90;48.60
55785;DHT22;41709;52.536;5.688;2022-08-23T14:13:07;29.00;47.50
55785;DHT22;41709;52.536;5.688;2022-08-23T14:15:35;29.10;46.70
55785;DHT22;41709;52.536;5.688;2022-08-23T14:18:01;29.30;46.90
55785;DHT22;41709;52.536;5.688;2022-08-23T14:20:27;29.40;46.70
55785;DHT22;41709;52.536;5.688;2022-08-23T14:22:52;29.40;47.30
55785;DHT22;41709;52.536;5.688;2022-08-23T14:25:18;29.50;46.70
55785;DHT22;41709;52.536;5.688;2022-08-23T14:27:45;29.60;46.90
55785;DHT22;41709;52.536;5.688;2022-08-23T14:30:22;29.70;46.80
55785;DHT22;41709;52.536;5.688;2022-08-23T14:32:48;29.70;45.90
55785;DHT22;41709;52.536;5.688;2022-08-23T14:35:14;29.80;46.20
55785;DHT22;41709;52.536;5.688;2022-08-23T14:37:39;29.90;46.90
55785;DHT22;41709;52.536;5.688;2022-08-23T14:40:05;29.90;46.00
55785;DHT22;41709;52.536;5.688;2022-08-23T14:42:31;29.90;45.90
55785;DHT22;41709;52.536;5.688;2022-08-23T14:44:57;29.90;47.50
55785;DHT22;41709;52.536;5.688;2022-08-23T14:47:22;29.90;46.50
55785;DHT22;41709;52.536;5.688;2022-08-23T14:49:48;30.00;47.00
55785;DHT22;41709;52.536;5.688;2022-08-23T14:52:14;30.10;44.50
55785;DHT22;41709;52.536;5.688;2022-08-23T14:54:40;30.10;44.30
55785;DHT22;41709;52.536;5.688;2022-08-23T14:57:06;30.00;45.00
55785;DHT22;41709;52.536;5.688;2022-08-23T14:59:31;30.00;46.70
55785;DHT22;41709;52.536;5.688;2022-08-23T15:01:57;30.00;46.30
55785;DHT22;41709;52.536;5.688;2022-08-23T15:04:23;30.00;46.10
55785;DHT22;41709;52.536;5.688;2022-08-23T15:06:50;30.10;46.00
55785;DHT22;41709;52.536;5.688;2022-08-23T15:09:16;30.20;44.90
55785;DHT22;41709;52.536;5.688;2022-08-23T15:11:42;30.20;44.80
55785;DHT22;41709;52.536;5.688;2022-08-23T15:14:08;30.20;44.60
55785;DHT22;41709;52.536;5.688;2022-08-23T15:16:33;30.30;45.40
55785;DHT22;41709;52.536;5.688;2022-08-23T15:19:01;30.40;43.70
55785;DHT22;41709;52.536;5.688;2022-08-23T15:21:27;30.50;44.80
55785;DHT22;41709;52.536;5.688;2022-08-23T15:23:52;30.50;44.00
55785;DHT22;41709;52.536;5.688;2022-08-23T15:26:23;30.60;45.10
55785;DHT22;41709;52.536;5.688;2022-08-23T15:28:49;30.60;44.30
55785;DHT22;41709;52.536;5.688;2022-08-23T15:31:16;30.60;44.80
55785;DHT22;41709;52.536;5.688;2022-08-23T15:33:42;30.70;44.70
55785;DHT22;41709;52.536;5.688;2022-08-23T15:36:10;30.60;45.10
55785;DHT22;41709;52.536;5.688;2022-08-23T15:38:36;30.70;45.60
55785;DHT22;41709;52.536;5.688;2022-08-23T15:41:02;30.60;43.90
55785;DHT22;41709;52.536;5.688;2022-08-23T15:43:28;30.40;44.70
55785;DHT22;41709;52.536;5.688;2022-08-23T15:45:54;30.30;44.20
55785;DHT22;41709;52.536;5.688;2022-08-23T15:48:23;30.20;45.00
55785;DHT22;41709;52.536;5.688;2022-08-23T15:50:51;30.00;46.20
55785;DHT22;41709;52.536;5.688;2022-08-23T15:53:18;29.90;45.80
55785;DHT22;41709;52.536;5.688;2022-08-23T15:55:44;29.80;45.80
55785;DHT22;41709;52.536;5.688;2022-08-23T15:58:19;29.80;46.50
55785;DHT22;41709;52.536;5.688;2022-08-23T16:00:45;29.60;45.80
55785;DHT22;41709;52.536;5.688;2022-08-23T16:03:11;29.50;46.80
55785;DHT22;41709;52.536;5.688;2022-08-23T16:05:39;29.50;48.50
55785;DHT22;41709;52.536;5.688;2022-08-23T16:08:06;29.40;46.70
55785;DHT22;41709;52.536;5.688;2022-08-23T16:10:33;29.40;47.40
55785;DHT22;41709;52.536;5.688;2022-08-23T16:12:59;29.40;46.80
55785;DHT22;41709;52.536;5.688;2022-08-23T16:15:24;29.40;47.00
55785;DHT22;41709;52.536;5.688;2022-08-23T16:17:50;29.20;46.90
55785;DHT22;41709;52.536;5.688;2022-08-23T16:20:15;29.10;47.80
55785;DHT22;41709;52.536;5.688;2022-08-23T16:22:41;29.00;47.50
55785;DHT22;41709;52.536;5.688;2022-08-23T16:25:08;28.90;48.50
55785;DHT22;41709;52.536;5.688;2022-08-23T16:27:34;28.80;48.50
55785;DHT22;41709;52.536;5.688;2022-08-23T16:30:01;28.70;48.70
55785;DHT22;41709;52.536;5.688;2022-08-23T16:32:26;28.80;49.80
55785;DHT22;41709;52.536;5.688;2022-08-23T16:34:52;28.80;49.70
55785;DHT22;41709;52.536;5.688;2022-08-23T16:37:18;28.70;50.00
55785;DHT22;41709;52.536;5.688;2022-08-23T16:39:45;28.70;49.20
55785;DHT22;41709;52.536;5.688;2022-08-23T16:42:10;28.60;49.20
55785;DHT22;41709;52.536;5.688;2022-08-23T16:44:36;28.60;49.40
55785;DHT22;41709;52.536;5.688;2022-08-23T16:47:03;28.50;49.90
55785;DHT22;41709;52.536;5.688;2022-08-23T16:49:30;28.50;50.70
55785;DHT22;41709;52.536;5.688;2022-08-23T16:51:58;28.50;50.00
55785;DHT22;41709;52.536;5.688;2022-08-23T16:54:24;28.50;49.50
55785;DHT22;41709;52.536;5.688;2022-08-23T16:56:52;28.60;50.30
55785;DHT22;41709;52.536;5.688;2022-08-23T16:59:18;28.60;50.30
55785;DHT22;41709;52.536;5.688;2022-08-23T17:01:53;28.60;51.00
55785;DHT22;41709;52.536;5.688;2022-08-23T17:04:20;28.40;50.50
55785;DHT22;41709;52.536;5.688;2022-08-23T17:06:48;28.50;50.50
55785;DHT22;41709;52.536;5.688;2022-08-23T17:09:14;28.50;50.40
55785;DHT22;41709;52.536;5.688;2022-08-23T17:11:41;28.30;51.20
55785;DHT22;41709;52.536;5.688;2022-08-23T17:14:07;28.30;52.20
55785;DHT22;41709;52.536;5.688;2022-08-23T17:16:33;28.20;52.20
55785;DHT22;41709;52.536;5.688;2022-08-23T17:18:59;28.20;54.20
55785;DHT22;41709;52.536;5.688;2022-08-23T17:21:25;28.10;56.10
55785;DHT22;41709;52.536;5.688;2022-08-23T17:23:51;28.10;56.10
55785;DHT22;41709;52.536;5.688;2022-08-23T17:26:17;28.00;56.30